Terminal Aerodrome Forecast
Issued by NWS

Home | Current Version | Previous Version | Text Only | Print | Product List | Glossary On
Versions: 1 2 3 4 5 6 7 8 9 10 11 12 13 14
382
FTUS42 KGSP 101136
TAFAND
TAF
KAND 101136Z 1012/1112 27012G18KT P6SM FEW040
     FM101600 27016G24KT P6SM FEW050
     FM110000 26008KT P6SM FEW120=

USA.gov is the U.S. government's official web portal to all federal, state and local government web resources and services.